• Join FlightAware (Why Join?)
  • Login
  • US Flag 
08:51PM EDT


 

Airport Tracker/Info


-or-


 

Live Flight TrackerFlight Track Log ✈ EJA941 ✈ 21-Aug-2013 ✈ KSMO - KIAD

Flight Track Log - Related Links

Times and Time Zones

All times are in EDT time to prevent confusion due to time zone crossing. See the EJA941 flight status page for this flight to view local times or setup timezone preferences in your user account.

Time Position Orientation Groundspeed Altitude Reporting Facility
EDT Latitude Longitude Course Direction KTS MPH feet Rate Location/Type
04:07PM 34.0000 -118.5000 53° Northeast 190 219 2,400  Level Southern California TRACON
04:08PM 34.0000 -118.5667 270° West 222 255 5,100 2,160 Climbing Southern California TRACON
04:09PM 34.0478 -118.6414 308° West 283 326 7,000 840 Climbing Los Angeles Center
04:10PM 34.1128 -118.6189 16° North 295 339 7,000  Level Los Angeles Center
04:11PM 34.1814 -118.5311 47° Northeast 297 342 7,000 720 Level Los Angeles Center
04:12PM 34.2406 -118.4617 44° Northeast 296 341 8,600 1,740 Climbing Los Angeles Center
04:13PM 34.3698 -118.4450 53° Northeast  Level FlightAware Approximate
04:13PM 34.3200 -118.4133 27° Northeast 320 368 10,600  Level Los Angeles Center
04:15PM 34.4039 -118.3656 25° Northeast 332 382 12,600 1,740 Climbing Los Angeles Center
04:16PM 34.4833 -118.3025 33° Northeast 347 399 14,300 1,560 Climbing Los Angeles Center
04:17PM 34.5425 -118.2064 53° Northeast 355 409 15,900 1,560 Climbing Los Angeles Center
04:18PM 34.6103 -118.0972 53° Northeast 369 425 17,600 1,380 Climbing Los Angeles Center
04:19PM 34.6406 -117.9750 73° East 382 440 18,800 1,140 Climbing Los Angeles Center
04:20PM 34.6547 -117.8450 82° East 390 449 20,000 1,200 Climbing Los Angeles Center
04:21PM 34.6831 -117.6844 78° East 410 472 21,400 1,200 Climbing Los Angeles Center
04:22PM 34.7167 -117.5489 73° East 423 487 22,600 1,140 Climbing Los Angeles Center
04:23PM 34.7522 -117.4097 73° East 434 499 23,800 1,140 Climbing Los Angeles Center
04:24PM 34.7875 -117.2700 73° East 438 504 25,000 1,140 Climbing Los Angeles Center
04:25PM 34.8231 -117.1269 73° East 446 513 26,200 1,200 Climbing Los Angeles Center
04:26PM 34.8733 -116.9572 70° East 447 514 27,600 1,200 Climbing Los Angeles Center
04:27PM 34.9542 -116.8367 51° Northeast 460 529 28,800 1,140 Climbing Los Angeles Center
04:28PM 35.0375 -116.7144 50° Northeast 468 539 30,000 1,140 Climbing Los Angeles Center
04:29PM 35.1222 -116.5911 50° Northeast 474 545 31,200 1,200 Climbing Los Angeles Center
04:30PM 35.2250 -116.4400 50° Northeast 480 552 32,600 840 Climbing Los Angeles Center
04:31PM 35.3122 -116.3097 51° Northeast 488 562 33,000 180 Climbing Los Angeles Center
04:32PM 35.4047 -116.1722 50° Northeast 509 586 33,000 180 Level Los Angeles Center
04:33PM 35.5003 -116.0292 51° Northeast 537 618 33,400 660 Climbing Los Angeles Center
04:34PM 35.5961 -115.8831 51° Northeast 538 619 34,400 960 Climbing Los Angeles Center
04:35PM 35.6903 -115.7453 50° Northeast 533 613 35,400 1,020 Climbing Los Angeles Center
04:36PM 35.8014 -115.5806 50° Northeast 527 606 36,600 960 Climbing Los Angeles Center
04:37PM 35.8933 -115.4417 51° Northeast 527 606 37,500 900 Climbing Los Angeles Center
04:38PM 35.9853 -115.3033 51° Northeast 527 606 38,500 960 Climbing Los Angeles Center
04:39PM 36.0756 -115.1642 51° Northeast 525 604 39,500 1,020 Climbing Los Angeles Center
04:40PM 36.1964 -115.0100 46° Northeast 525 604 40,700 720 Climbing Los Angeles Center
04:41PM 36.2978 -114.8814 46° Northeast 525 604 41,000 120 Climbing Los Angeles Center
04:42PM 36.4006 -114.7492 46° Northeast 531 611 41,000  Level Los Angeles Center
04:44PM 36.5039 -114.6131 47° Northeast 540 621 41,000  Level Los Angeles Center
04:45PM 36.6083 -114.4769 46° Northeast 543 625 41,000 120 Level Los Angeles Center
04:46PM 36.7728 -114.2550 47° Northeast 545 627 41,400 600 Climbing Salt Lake Center
04:47PM 36.8581 -114.0778 59° Northeast 522 601 42,700 780 Climbing Salt Lake Center
04:48PM 36.9311 -113.9264 59° Northeast 512 589 43,000 120 Climbing Salt Lake Center
04:49PM 37.0047 -113.7714 59° Northeast 517 595 43,000  Level Salt Lake Center
04:50PM 37.0797 -113.6158 59° Northeast 522 601 43,000  Level Salt Lake Center
04:51PM 37.1533 -113.4597 59° Northeast 523 602 43,000  Level Salt Lake Center
04:52PM 37.2414 -113.2708 60° Northeast 525 604 43,000  Level Salt Lake Center
04:53PM 37.3144 -113.1139 60° Northeast 523 602 43,000  Level Salt Lake Center
04:54PM 37.3444 -113.0497 60° Northeast 524 603 43,000  Level Los Angeles Center
04:55PM 37.4289 -112.8628 60° Northeast 520 598 43,000  Level Los Angeles Center
04:55PM 37.4561 -112.8000 61° Northeast 524 603 43,000  Level Salt Lake Center
04:56PM 37.5453 -112.6136 59° Northeast 530 610 43,000  Level Salt Lake Center
04:57PM 37.5747 -112.5517 59° Northeast 527 606 43,000  Level Los Angeles Center
04:58PM 37.6475 -112.3953 60° Northeast 522 601 43,000  Level Los Angeles Center
04:59PM 37.6911 -112.3006 60° Northeast 524 603 43,000  Level Salt Lake Center
05:00PM 37.7761 -112.1506 54° Northeast 526 605 43,000  Level Salt Lake Center
05:01PM 37.8628 -112.0025 53° Northeast 525 604 43,000  Level Salt Lake Center
05:02PM 37.9503 -111.8514 54° Northeast 530 610 43,000  Level Denver Center
05:03PM 38.0367 -111.7019 54° Northeast 527 606 43,000  Level Denver Center
05:04PM 38.1206 -111.5522 55° Northeast 524 603 43,000  Level Denver Center
05:05PM 38.2222 -111.3744 54° Northeast 521 600 43,000  Level Denver Center
05:06PM 38.3050 -111.2244 55° Northeast 519 597 43,000  Level Denver Center
05:07PM 38.3908 -111.0761 54° Northeast 520 598 43,000  Level Salt Lake Center
05:08PM 38.4733 -110.9278 55° Northeast 516 594 43,000  Level Salt Lake Center
05:09PM 38.5725 -110.7492 55° Northeast 515 593 43,000  Level Salt Lake Center
05:10PM 38.6558 -110.5997 54° Northeast 516 594 43,000  Level Salt Lake Center
05:11PM 38.7361 -110.4486 56° Northeast 515 593 43,000  Level Denver Center
05:12PM 38.8189 -110.2981 55° Northeast 516 594 43,000  Level Denver Center
05:13PM 38.9008 -110.1464 55° Northeast 518 596 43,000  Level Denver Center
05:14PM 38.9819 -109.9939 56° Northeast 518 596 43,000  Level Denver Center
05:15PM 39.0642 -109.8422 55° Northeast 518 596 43,000  Level Denver Center
05:16PM 39.1606 -109.6617 55° Northeast 520 598 43,000  Level Denver Center
05:17PM 39.2486 -109.5025 54° Northeast 521 600 43,000  Level Salt Lake Center
05:18PM 39.3319 -109.3414 56° Northeast 523 602 43,000  Level Denver Center
05:19PM 39.4117 -109.1942 55° Northeast 521 600 43,000  Level Salt Lake Center
05:20PM 39.5003 -109.0239 56° Northeast 525 604 43,000  Level Denver Center
05:21PM 39.5811 -108.8692 56° Northeast 521 600 43,000  Level Denver Center
05:22PM 39.6694 -108.7000 56° Northeast 524 603 43,000  Level Denver Center
05:23PM 39.7389 -108.5650 56° Northeast 525 604 43,000  Level Denver Center
05:24PM 39.8206 -108.4050 56° Northeast 528 608 43,000  Level Denver Center
05:25PM 39.9211 -108.2133 56° Northeast 526 605 43,000  Level Denver Center
05:26PM 39.9914 -108.0703 57° Northeast 506 582 43,000  Level Denver Center
05:27PM 40.0806 -107.8919 57° Northeast 524 603 43,000  Level Denver Center
05:28PM 40.1497 -107.7333 60° Northeast 528 608 43,000  Level Denver Center
05:29PM 40.2322 -107.5464 60° Northeast 531 611 43,000  Level Denver Center
05:31PM 40.3028 -107.3856 60° Northeast 534 615 43,000  Level Denver Center
05:32PM 40.3839 -107.1972 60° Northeast 532 612 43,000  Level Denver Center
05:33PM 40.4539 -107.0372 60° Northeast 532 612 43,000  Level Denver Center
05:34PM 40.5342 -106.8494 61° Northeast 530 610 43,000  Level Denver Center
05:35PM 40.6069 -106.6786 61° Northeast 532 612 43,000  Level Denver Center
05:36PM 40.6800 -106.5053 61° Northeast 537 618 43,000  Level Denver Center
05:37PM 40.7531 -106.3317 61° Northeast 533 613 43,000  Level Denver Center
05:38PM 40.8253 -106.1556 62° Northeast 534 615 43,000  Level Denver Center
05:39PM 40.9086 -105.9583 61° Northeast 536 617 43,000  Level Denver Center
05:40PM 40.9808 -105.7844 61° Northeast 535 616 43,000  Level Denver Center
05:41PM 41.0533 -105.6044 62° Northeast 534 615 43,000  Level Denver Center
05:42PM 41.1206 -105.4403 61° Northeast 532 612 43,000  Level Denver Center
05:43PM 41.1989 -105.2453 62° Northeast 534 615 43,100 180 Climbing Denver Center
05:44PM 41.2667 -105.0803 61° Northeast 533 613 43,400 420 Climbing Denver Center
05:45PM 41.3431 -104.8836 63° Northeast 536 617 44,000 300 Climbing Denver Center
05:46PM 41.4094 -104.7233 61° Northeast 522 601 44,100 240 Climbing Denver Center
05:47PM 41.4850 -104.5314 62° Northeast 525 604 44,600 240 Climbing Denver Center
05:48PM 41.5503 -104.3664 62° Northeast 527 606 44,700  Climbing Denver Center
05:49PM 41.6261 -104.1744 62° Northeast 526 605 44,700  Level Denver Center
05:50PM 41.6906 -104.0075 63° Northeast 529 609 44,800 60 Climbing Denver Center
05:51PM 41.7653 -103.8139 63° Northeast 529 609 44,900 60 Climbing Denver Center
05:52PM 41.8300 -103.6461 63° Northeast 530 610 45,000  Climbing Denver Center
05:53PM 41.8972 -103.4450 66° East 532 612 45,000  Level Denver Center
05:54PM 41.9242 -103.2597 79° East 530 610 45,000  Level Denver Center
05:55PM 41.9550 -103.0411 79° East 533 613 45,000  Level Denver Center
05:56PM 41.9803 -102.8567 79° East 527 606 45,000  Level Denver Center
05:57PM 42.0056 -102.6700 80° East 529 609 45,000  Level Denver Center
05:58PM 42.0347 -102.4547 80° East 526 605 45,000  Level Denver Center
05:59PM 42.0583 -102.2714 80° East 523 602 45,000  Level Denver Center
06:01PM 42.0889 -102.0464 80° East 527 606 45,000  Level Denver Center
06:02PM 42.1131 -101.8608 80° East 525 604 45,000  Level Denver Center
06:03PM 42.1406 -101.6439 80° East 525 604 45,000  Level Denver Center
06:04PM 42.1631 -101.4608 81° East 520 598 45,000  Level Denver Center
06:05PM 42.1861 -101.2775 80° East 517 595 45,000  Level Denver Center
06:06PM 42.2117 -101.0631 81° East 518 596 45,000  Level Denver Center
06:07PM 42.2331 -100.8806 81° East 515 593 45,000  Level Denver Center
06:08PM 42.2583 -100.6700 81° East 511 588 45,000  Level Denver Center
06:09PM 42.2786 -100.4850 82° East 515 593 45,000  Level Denver Center
06:10PM 42.3031 -100.2717 81° East 515 593 45,000  Level Denver Center
06:11PM 42.3239 -100.0883 81° East 515 593 45,000  Level Denver Center
06:12PM 42.3469 -99.8731 82° East 517 595 45,000  Level Denver Center
06:13PM 42.3675 -99.6889 81° East 517 595 45,000  Level Denver Center
06:14PM 42.3803 -99.5689 82° East 517 595 45,000  Level Minneapolis Center
06:15PM 42.4000 -99.3753 82° East 517 595 45,000  Level Minneapolis Center
06:16PM 42.4211 -99.1814 82° East 519 597 45,000  Level Minneapolis Center
06:18PM 42.4606 -98.7922 82° East 519 597 45,000  Level Minneapolis Center
06:19PM 42.4764 -98.5983 84° East 518 596 45,000  Level Minneapolis Center
06:20PM 42.4875 -98.3644 86° East 518 596 45,000  Level Minneapolis Center
06:21PM 42.4961 -98.1692 87° East 519 597 45,000  Level Minneapolis Center
06:22PM 42.5058 -97.9753 86° East 515 593 45,000  Level Minneapolis Center
06:23PM 42.5139 -97.7894 87° East 517 595 45,000  Level Minneapolis Center
06:24PM 42.5192 -97.6372 87° East 512 589 45,000  Level Minneapolis Center
06:25PM 42.5297 -97.4039 86° East 514 592 45,000  Level Minneapolis Center
06:26PM 42.5389 -97.1719 87° East 513 590 45,000  Level Minneapolis Center
06:27PM 42.5453 -96.9789 87° East 512 589 45,000  Level Minneapolis Center
06:28PM 42.5522 -96.7853 87° East 513 590 45,000  Level Minneapolis Center
06:29PM 42.5589 -96.5903 87° East 513 590 45,000  Level Minneapolis Center
06:30PM 42.5658 -96.3978 87° East 512 589 45,000  Level Minneapolis Center
06:31PM 42.5711 -96.2033 88° East 513 590 45,000  Level Minneapolis Center
06:32PM 42.5761 -96.0100 88° East 513 590 45,000  Level Minneapolis Center
06:33PM 42.5833 -95.7392 88° East 513 590 45,000  Level Minneapolis Center
06:34PM 42.5872 -95.5864 88° East 509 586 45,000  Level Minneapolis Center
06:35PM 42.5928 -95.3539 88° East 510 587 45,000  Level Minneapolis Center
06:36PM 42.5967 -95.1617 88° East 511 588 45,000  Level Minneapolis Center
06:38PM 42.6003 -94.9694 88° East 510 587 45,000  Level Minneapolis Center
06:39PM 42.6047 -94.7389 88° East 509 586 45,000  Level Minneapolis Center
06:40PM 42.6061 -94.5619 89° East 514 592 45,000  Level Minneapolis Center
06:41PM 42.5928 -94.3731 95° East 509 586 45,000  Level Minneapolis Center
06:42PM 42.5781 -94.1461 95° East 511 588 45,000  Level Minneapolis Center
06:43PM 42.5653 -93.9189 94° East 508 585 45,000  Level Minneapolis Center
06:44PM 42.5611 -93.7300 92° East 508 585 45,000  Level Minneapolis Center
06:45PM 42.5350 -93.5436 101° East 508 585 45,000  Level Minneapolis Center
06:46PM 42.5097 -93.3558 100° East 512 589 45,000  Level Minneapolis Center
06:47PM 42.4786 -93.1303 101° East 512 589 45,000  Level Minneapolis Center
06:48PM 42.4511 -92.9447 101° East 511 588 45,000  Level Minneapolis Center
06:49PM 42.4244 -92.7539 101° East 518 596 45,000  Level Minneapolis Center
06:50PM 42.3972 -92.5647 101° East 518 596 45,000  Level Minneapolis Center
06:51PM 42.3697 -92.3764 101° East 519 597 45,000  Level Minneapolis Center
06:52PM 42.3364 -92.1517 101° East 518 596 45,000  Level Minneapolis Center
06:53PM 42.3081 -91.9647 102° East 517 595 45,000  Level Minneapolis Center
06:54PM 42.2794 -91.7792 102° East 516 594 45,000  Level Minneapolis Center
06:55PM 42.2508 -91.5925 102° East 517 595 45,000  Level Minneapolis Center
06:56PM 42.2153 -91.3689 102° East 517 595 45,000  Level Minneapolis Center
06:57PM 42.1919 -91.2208 102° East 516 594 45,000  Level Minneapolis Center
06:59PM 42.1450 -90.9258 102° East 509 586 45,000  Level Chicago Center
07:00PM 42.1147 -90.7406 102° East 513 590 45,000  Level Chicago Center
07:01PM 42.0786 -90.5175 102° East 515 593 45,000  Level Chicago Center
07:02PM 42.0486 -90.3308 102° East 517 595 45,000  Level Chicago Center
07:03PM 42.0186 -90.1458 102° East 514 592 45,000  Level Chicago Center
07:04PM 41.9872 -89.9628 103° East 511 588 45,000  Level Chicago Center
07:05PM 41.9553 -89.7797 103° East 502 578 45,000  Level Chicago Center
07:06PM 41.9169 -89.5589 103° East 509 586 45,000  Level Chicago Center
07:07PM 41.8856 -89.3739 103° East 512 589 45,000  Level Chicago Center
07:08PM 41.8533 -89.1886 103° East 513 590 45,000  Level Chicago Center
07:09PM 41.8181 -89.0058 104° East 509 586 45,000  Level Chicago Center
07:10PM 41.7858 -88.8214 103° East 510 587 45,000  Level Chicago Center
07:11PM 41.7456 -88.6028 104° East 508 585 45,000  Level Chicago Center
07:12PM 41.7119 -88.4181 104° East 510 587 45,000  Level Chicago Center
07:13PM 41.6783 -88.2322 104° East 509 586 45,000  Level Chicago Center
07:14PM 41.6442 -88.0461 104° East 507 583 45,000  Level Chicago Center
07:16PM 41.5781 -87.6975 104° East 514 592 45,000  Level Indianapolis Center
07:17PM 41.5417 -87.5164 105° East 512 589 45,000  Level Indianapolis Center
07:18PM 41.4931 -87.2692 105° East 510 587 45,000  Level Chicago Center
07:20PM 41.4581 -87.0875 104° East 510 587 45,000  Level Chicago Center
07:21PM 41.4219 -86.9067 105° East 508 585 45,000  Level Chicago Center
07:22PM 41.3814 -86.7106 105° East 505 581 45,000  Level Chicago Center
07:23PM 41.3461 -86.5358 105° East 494 568 45,000  Level Chicago Center
07:24PM 41.3106 -86.3611 105° East 492 566 45,000  Level Chicago Center
07:25PM 41.2747 -86.1867 105° East 493 567 45,000  Level Chicago Center
07:26PM 41.2375 -86.0100 106° East 500 575 45,000  Level Chicago Center
07:27PM 41.1939 -85.7950 105° East 507 583 45,000  Level Chicago Center
07:28PM 41.1539 -85.6156 106° East 512 589 45,000  Level Chicago Center
07:29PM 41.1153 -85.4342 106° East 515 593 45,000  Level Chicago Center
07:31PM 41.0361 -85.0650 106° East 513 590 45,000  Level Indianapolis Center
07:32PM 40.9969 -84.8850 106° East 512 589 45,000  Level Indianapolis Center
07:33PM 40.9575 -84.7042 106° East 510 587 45,000  Level Indianapolis Center
07:34PM 40.9106 -84.4933 106° East 509 586 45,000  Level Indianapolis Center
07:35PM 40.8700 -84.3131 107° East 508 585 45,000  Level Indianapolis Center
07:36PM 40.8300 -84.1356 107° East 504 580 45,000  Level Indianapolis Center
07:37PM 40.7900 -83.9600 107° East 496 571 45,000  Level Indianapolis Center
07:38PM 40.7478 -83.7819 107° East 503 579 45,000  Level Indianapolis Center
07:39PM 40.7072 -83.6042 107° East 502 578 45,000  Level Indianapolis Center
07:40PM 40.6644 -83.4264 108° East 505 581 45,000  Level Indianapolis Center
07:41PM 40.6136 -83.2500 111° Southeast 511 588 45,000  Level Indianapolis Center
07:42PM 40.5561 -83.0564 111° Southeast 516 594 45,000  Level Indianapolis Center
07:43PM 40.5086 -82.8947 111° Southeast 516 594 45,000  Level Indianapolis Center
07:44PM 40.4519 -82.7042 111° Southeast 513 590 45,000  Level Indianapolis Center
07:45PM 40.3994 -82.5303 112° Southeast 512 589 45,000  Level Indianapolis Center
07:46PM 40.3478 -82.3575 111° Southeast 508 585 45,000  Level Indianapolis Center
07:47PM 40.2953 -82.1850 112° Southeast 508 585 45,000  Level Indianapolis Center
07:48PM 40.2369 -81.9944 112° Southeast 512 589 45,000  Level Indianapolis Center
07:49PM 40.1825 -81.8181 112° Southeast 518 596 45,000  Level Indianapolis Center
07:50PM 40.1239 -81.6300 112° Southeast 522 601 45,000  Level Indianapolis Center
07:51PM 40.0697 -81.4556 112° Southeast 515 593 45,000  Level Indianapolis Center
07:52PM 40.0183 -81.2897 112° Southeast 494 568 45,000 -60 Level Indianapolis Center
07:53PM 39.9667 -81.1275 113° Southeast 484 557 44,900  Descending Indianapolis Center
07:54PM 39.9103 -80.9506 113° Southeast 499 574 45,000 -300 Climbing Indianapolis Center
07:55PM 39.8553 -80.7778 112° Southeast 513 590 44,400 -840 Descending Indianapolis Center
07:56PM 39.7983 -80.6000 113° Southeast 527 606 43,300 -1,200 Descending Indianapolis Center
07:58PM 39.7356 -80.3994 112° Southeast 515 593 41,900 -1,320 Descending Cleveland Center
07:59PM 39.6811 -80.2297 113° Southeast 515 593 40,600 -2,460 Descending Cleveland Center
08:00PM 39.5817 -79.9267 113° Southeast 533 613 35,000 -3,300 Descending Washington Center
08:01PM 39.5378 -79.7492 108° East 521 600 31,400 -4,020 Descending Washington Center
08:02PM 39.5061 -79.5753 103° East 507 583 27,100 -2,460 Descending Washington Center
08:03PM 39.4781 -79.4175 103° East 482 555 26,600 -1,260 Descending Washington Center
08:04PM 39.4453 -79.2600 105° East 461 531 24,600 -2,100 Descending Washington Center
08:05PM 39.4044 -79.0942 108° East 461 531 22,400 -2,220 Descending Washington Center
08:06PM 39.3694 -78.9258 105° East 467 537 20,200 -2,220 Descending Washington Center
08:07PM 39.3361 -78.7742 106° East 473 544 18,100 -1,980 Descending Washington Center
08:08PM 39.3044 -78.6333 106° East 438 504 16,300 -1,800 Descending Washington Center
08:09PM 39.2764 -78.5006 105° East 401 461 14,500 -1,800 Descending Washington Center
08:10PM 39.2483 -78.3708 106° East 385 443 12,800 -1,620 Descending Washington Center
08:11PM 39.2217 -78.2572 107° East 357 411 11,300 -1,260 Descending Washington Center
08:12PM 39.1797 -78.1675 121° Southeast 317 365 10,300 -720 Descending Washington Center
08:13PM 39.1336 -78.0803 124° Southeast 299 344 9,900 -1,260 Descending Washington Center
08:14PM 39.0894 -77.9983 125° Southeast 287 330 7,800 -1,440 Descending Washington Center
08:15PM 39.0453 -77.9142 124° Southeast 282 325 7,000 -360 Descending Washington Center
08:16PM 39.0092 -77.8408 122° Southeast 282 325 7,100  Climbing Washington Center
08:17PM 38.9650 -77.7461 121° Southeast 282 325 7,100  Level Washington Center
08:18PM 38.9625 -77.6419 92° East 279 321 7,100 -480 Level Washington Center
08:19PM 39.0000 -77.5833 51° Northeast 303 349 6,300 -660 Descending Potomac TRACON
08:20PM 39.0833 -77.5667 North 262 302 5,900 -720 Descending Potomac TRACON
08:21PM 39.1500 -77.5667 360° North 243 280 4,900 -960 Descending Potomac TRACON
08:22PM 39.1833 -77.5167 49° Northeast 241 277 4,000 -420 Descending Potomac TRACON
08:23PM 39.1667 -77.4667 113° Southeast 179 206 4,100 -180 Climbing Potomac TRACON
08:24PM 39.1333 -77.4500 159° South 166 191 3,700 -660 Descending Potomac TRACON
08:25PM 39.0833 -77.4500 180° South 170 196 2,900 -960 Descending Potomac TRACON
08:26PM 39.0333 -77.4667 195° South 162 186 1,800 -1,020 Descending Potomac TRACON
08:27PM 39.0000 -77.4667 180° South 134 154 900 -900 Descending Potomac TRACON
08:29PM 38.9474 -77.4599 165° South  Level Estimated
08:36PM 38.9474 -77.4599 165° South  Level Estimated